Allenton, Wisconsin
Current Conditions -  °F | °C
As of 8:55 PM on Sunday 23 Nov 2014 (Local Time) from KETB Reporting Station
Moderate Rain Moderate Rain  
Wind Chill: 42°   Ceiling: 300
Heat Index: 45°   Visibility: 7mi
Dew Point: 43°   Wind: 5mph
Humidity: 93%   Direction: 70°ENE
Pressure: 29.25"   Gusts: NA
Location:  43.42°N, 88.34°W
Report Text: KETB 240255Z AUTO 07004KT 7SM RA OVC003 07/06 A2925 RMK AO2 P0008
Loading
Personal Weather Stations






























Interactive Weather Map New forecast layout! Learn more

10-Day Weather Forecast

Advertisements
Track Severe Weather on mobile